createdAt,value
2019-04-10T00:00:04.323Z,50.06
2019-04-10T00:02:39.492Z,52.64
2019-04-10T00:05:12.339Z,49.72
2019-04-10T00:07:45.798Z,50.95
2019-04-10T00:10:19.399Z,49.92
2019-04-10T00:12:52.209Z,50.27
2019-04-10T00:15:24.875Z,50.61
2019-04-10T00:17:57.757Z,49.87
2019-04-10T00:20:32.454Z,52.27
2019-04-10T00:23:04.973Z,49.76
2019-04-10T00:25:41.161Z,51.26
2019-04-10T00:28:14.907Z,49.48
2019-04-10T00:30:49.396Z,50.32
2019-04-10T00:33:22.896Z,49.61
2019-04-10T00:35:56.037Z,49.65
2019-04-10T00:38:29.565Z,51.47
2019-04-10T00:41:02.431Z,49.42
2019-04-10T00:43:35.043Z,51.22
2019-04-10T00:46:08.165Z,49.45
2019-04-10T00:48:41.772Z,49.95
2019-04-10T00:51:15.216Z,50.95
2019-04-10T00:53:49.663Z,49.65
2019-04-10T00:56:22.510Z,52.14
2019-04-10T00:58:55.448Z,49.43
2019-04-10T01:01:27.777Z,50.58
2019-04-10T01:04:02.693Z,50.58
2019-04-10T01:06:35.750Z,49.65
2019-04-10T01:09:10.304Z,51.54
2019-04-10T01:11:43.409Z,49.05
2019-04-10T01:14:16.053Z,49.75
2019-04-10T01:16:49.436Z,49.76
2019-04-10T01:19:23.934Z,49.03
2019-04-10T01:21:56.966Z,50.43
2019-04-10T01:24:30.003Z,48.67
2019-04-10T01:27:03.419Z,48.80
2019-04-10T01:29:36.237Z,50.41
2019-04-10T01:32:09.756Z,48.56
2019-04-10T01:34:43.180Z,49.23
2019-04-10T01:37:16.644Z,49.30
2019-04-10T01:39:50.656Z,48.21
2019-04-10T01:42:23.416Z,51.37
2019-04-10T01:44:56.004Z,48.63
2019-04-10T01:47:31.015Z,49.97
2019-04-10T01:50:04.407Z,48.92
2019-04-10T01:52:39.380Z,48.92
2019-04-10T01:55:20.156Z,50.85
2019-04-10T01:57:47.058Z,48.72
2019-04-10T02:00:23.953Z,49.87
2019-04-10T02:02:56.510Z,49.03
2019-04-10T02:05:30.281Z,48.39
2019-04-10T02:08:08.610Z,51.18
2019-04-10T02:10:38.467Z,48.59
2019-04-10T02:13:11.488Z,49.65
2019-04-10T02:15:44.119Z,49.77
2019-04-10T02:18:17.248Z,48.54
2019-04-10T02:20:50.094Z,50.81
2019-04-10T02:23:22.767Z,48.51
2019-04-10T02:25:55.333Z,49.19
2019-04-10T02:28:29.060Z,50.03
2019-04-10T02:31:02.873Z,48.31
2019-04-10T02:33:35.839Z,50.00
2019-04-10T02:36:08.537Z,48.39
2019-04-10T02:38:55.379Z,48.21
2019-04-10T02:41:15.052Z,50.95
2019-04-10T02:43:47.996Z,48.08
2019-04-10T02:46:22.009Z,48.60
2019-04-10T02:48:55.996Z,49.20
2019-04-10T02:51:30.484Z,47.96
2019-04-10T02:54:04.764Z,50.10
2019-04-10T02:56:37.117Z,48.24
2019-04-10T02:59:11.066Z,48.23
2019-04-10T03:01:44.035Z,50.00
2019-04-10T03:04:16.626Z,47.54
2019-04-10T03:06:51.564Z,49.22
2019-04-10T03:09:37.164Z,48.69
2019-04-10T03:11:59.526Z,47.46
2019-04-10T03:14:32.714Z,48.94
2019-04-10T03:17:06.021Z,47.86
2019-04-10T03:19:38.697Z,47.65
2019-04-10T03:22:12.370Z,49.81
2019-04-10T03:24:45.154Z,47.46
2019-04-10T03:27:19.092Z,49.13
2019-04-10T03:29:51.978Z,47.90
2019-04-10T03:32:40.656Z,47.64
2019-04-10T03:35:28.583Z,50.16
2019-04-10T03:38:01.554Z,47.28
2019-04-10T03:40:35.450Z,47.42
2019-04-10T03:43:08.173Z,49.21
2019-04-10T03:45:41.092Z,47.16
2019-04-10T03:48:15.842Z,48.05
2019-04-10T03:50:48.539Z,48.87
2019-04-10T03:53:22.299Z,47.37
2019-04-10T03:55:57.128Z,48.71
2019-04-10T03:58:29.960Z,47.25
2019-04-10T04:01:02.797Z,47.16
2019-04-10T04:03:35.180Z,49.54
2019-04-10T04:06:09.022Z,46.81
2019-04-10T04:08:41.629Z,47.43
2019-04-10T04:11:14.181Z,47.99
2019-04-10T04:13:47.932Z,46.77
2019-04-10T04:16:22.690Z,48.94
2019-04-10T04:18:59.760Z,46.86
2019-04-10T04:21:32.590Z,46.58
2019-04-10T04:24:05.152Z,48.76
2019-04-10T04:26:37.733Z,46.71
2019-04-10T04:29:10.289Z,47.86
2019-04-10T04:31:42.490Z,46.99
2019-04-10T04:34:15.244Z,46.88
2019-04-10T04:36:49.131Z,48.68
2019-04-10T04:39:26.237Z,46.89
2019-04-10T04:41:56.382Z,46.63
2019-04-10T04:44:29.271Z,48.55
2019-04-10T04:47:02.036Z,46.44
2019-04-10T04:49:35.731Z,48.54
2019-04-10T04:52:10.386Z,46.81
2019-04-10T04:54:43.500Z,46.70
2019-04-10T04:57:17.021Z,48.44
2019-04-10T04:59:50.566Z,46.47
2019-04-10T05:02:23.522Z,46.90
2019-04-10T05:05:00.305Z,48.05
2019-04-10T05:07:35.505Z,46.56
2019-04-10T05:10:09.586Z,47.25
2019-04-10T05:12:43.248Z,47.18
2019-04-10T05:15:17.165Z,46.19
2019-04-10T05:17:49.734Z,49.04
2019-04-10T05:20:23.200Z,46.36
2019-04-10T05:22:56.033Z,47.33
2019-04-10T05:25:29.379Z,47.39
2019-04-10T05:28:02.282Z,46.41
2019-04-10T05:30:35.708Z,48.71
2019-04-10T05:33:09.306Z,46.65
2019-04-10T05:35:41.934Z,47.60
2019-04-10T05:38:14.551Z,47.48
2019-04-10T05:40:47.024Z,47.16
2019-04-10T05:43:19.985Z,47.27
2019-04-10T05:45:53.006Z,46.94
2019-04-10T05:48:26.463Z,48.34
2019-04-10T05:51:02.988Z,46.82
2019-04-10T05:53:32.965Z,49.34
2019-04-10T05:56:05.664Z,47.02
2019-04-10T05:58:39.042Z,49.11
2019-04-10T06:01:11.595Z,47.03
2019-04-10T06:03:45.607Z,48.26
2019-04-10T06:06:17.886Z,47.41
2019-04-10T06:08:51.143Z,48.25
2019-04-10T06:11:24.601Z,48.38
2019-04-10T06:13:57.277Z,48.38
2019-04-10T06:16:30.308Z,48.43
2019-04-10T06:19:03.982Z,48.62
2019-04-10T06:21:37.617Z,48.76
2019-04-10T06:24:10.441Z,48.33
2019-04-10T06:26:43.477Z,49.03
2019-04-10T06:29:17.089Z,49.32
2019-04-10T06:31:50.237Z,48.71
2019-04-10T06:34:22.905Z,48.95
2019-04-10T06:36:55.606Z,49.23
2019-04-10T06:39:28.903Z,50.13
2019-04-10T06:42:02.517Z,49.08
2019-04-10T06:44:36.291Z,50.47
2019-04-10T06:47:09.847Z,48.91
2019-04-10T06:49:42.536Z,49.87
2019-04-10T06:52:15.048Z,49.82
2019-04-10T06:54:47.603Z,50.32
2019-04-10T06:57:20.808Z,51.06
2019-04-10T06:59:54.439Z,50.27
2019-04-10T07:02:30.665Z,50.73
2019-04-10T07:05:05.723Z,49.78
2019-04-10T07:07:49.507Z,51.18
2019-04-10T07:10:22.389Z,51.27
2019-04-10T07:12:45.781Z,50.73
2019-04-10T07:15:22.415Z,50.83
2019-04-10T07:17:53.414Z,50.99
2019-04-10T07:20:26.291Z,50.52
2019-04-10T07:22:59.579Z,51.15
2019-04-10T07:25:32.364Z,51.34
2019-04-10T07:28:08.781Z,50.48
2019-04-10T07:30:40.086Z,51.71
2019-04-10T07:33:14.895Z,51.54
2019-04-10T07:35:46.757Z,52.18
2019-04-10T07:38:21.354Z,51.34
2019-04-10T07:40:54.712Z,50.66
2019-04-10T07:44:12.069Z,50.52
2019-04-10T07:46:44.974Z,49.61
2019-04-10T07:49:19.336Z,49.97
2019-04-10T07:51:51.992Z,48.26
2019-04-10T07:54:26.659Z,48.17
2019-04-10T07:56:59.906Z,48.49
2019-04-10T07:59:33.403Z,48.31
2019-04-10T08:02:08.444Z,48.51
2019-04-10T08:05:20.971Z,48.57
2019-04-10T08:07:56.069Z,47.01
2019-04-10T08:10:28.866Z,46.09
2019-04-10T08:13:02.420Z,46.18
2019-04-10T08:15:37.610Z,46.78
2019-04-10T08:18:10.681Z,45.17
2019-04-10T08:20:43.167Z,45.09
2019-04-10T08:23:15.727Z,46.96
2019-04-10T08:25:47.824Z,46.23
2019-04-10T08:28:20.383Z,46.38
2019-04-10T08:30:52.567Z,46.27
2019-04-10T08:33:25.988Z,44.26
2019-04-10T08:35:58.993Z,45.85
2019-04-10T08:38:32.373Z,44.92
2019-04-10T08:41:05.265Z,44.85
2019-04-10T08:43:37.802Z,44.73
2019-04-10T08:46:10.882Z,45.43
2019-04-10T08:48:43.649Z,43.85
2019-04-10T08:51:17.057Z,43.97
2019-04-10T08:53:50.835Z,44.15
2019-04-10T08:56:24.750Z,44.09
2019-04-10T08:58:57.293Z,43.38
2019-04-10T09:01:31.500Z,43.51
2019-04-10T09:04:03.988Z,45.27
2019-04-10T09:06:37.681Z,42.99
2019-04-10T09:09:10.724Z,42.74
2019-04-10T09:11:43.286Z,42.14
2019-04-10T09:14:16.993Z,42.82
2019-04-10T09:16:49.686Z,41.34
2019-04-10T09:19:22.264Z,41.27
2019-04-10T09:21:55.402Z,41.66
2019-04-10T09:24:28.290Z,42.01
2019-04-10T09:27:01.244Z,41.33
2019-04-10T09:29:34.022Z,40.10
2019-04-10T09:32:06.667Z,40.47
2019-04-10T09:34:38.842Z,39.47
2019-04-10T09:37:13.476Z,39.91
2019-04-10T09:39:47.591Z,39.93
2019-04-10T09:42:21.531Z,38.52
2019-04-10T09:44:54.836Z,38.01
2019-04-10T09:47:27.407Z,38.60
2019-04-10T09:50:00.035Z,40.08
2019-04-10T09:52:32.455Z,39.22
2019-04-10T09:55:07.348Z,40.43
2019-04-10T09:57:40.896Z,38.98
2019-04-10T10:00:15.055Z,37.38
2019-04-10T10:02:50.723Z,37.77
2019-04-10T10:05:23.052Z,39.40
2019-04-10T10:07:56.206Z,39.45
2019-04-10T10:10:29.263Z,38.56
2019-04-10T10:13:01.729Z,36.93
2019-04-10T10:15:35.522Z,37.99
2019-04-10T10:18:08.853Z,37.40
2019-04-10T10:20:41.500Z,36.70
2019-04-10T10:23:14.079Z,37.50
2019-04-10T10:25:47.717Z,37.48
2019-04-10T10:28:20.835Z,38.67
2019-04-10T10:30:53.670Z,36.43
2019-04-10T10:33:26.325Z,36.20
2019-04-10T10:35:59.829Z,35.79
2019-04-10T10:38:32.500Z,36.14
2019-04-10T10:41:05.288Z,36.05
2019-04-10T10:43:37.793Z,35.75
2019-04-10T10:46:11.334Z,36.42
2019-04-10T10:48:44.185Z,35.99
2019-04-10T10:51:18.336Z,37.32
2019-04-10T10:53:52.508Z,35.71
2019-04-10T10:56:25.247Z,33.77
2019-04-10T10:58:58.938Z,35.41
2019-04-10T11:01:31.933Z,36.66
2019-04-10T11:04:04.928Z,36.24
2019-04-10T11:06:49.380Z,35.92
2019-04-10T11:09:14.280Z,35.57
2019-04-10T11:11:47.571Z,34.06
2019-04-10T11:14:21.505Z,34.47
2019-04-10T11:16:56.144Z,32.83
2019-04-10T11:19:29.015Z,32.41
2019-04-10T11:22:01.461Z,33.14
2019-04-10T11:24:35.334Z,31.46
2019-04-10T11:27:10.330Z,31.89
2019-04-10T11:29:45.394Z,33.13
2019-04-10T11:32:19.906Z,30.80
2019-04-10T11:34:52.897Z,31.57
2019-04-10T11:37:35.011Z,31.07
2019-04-10T11:40:01.210Z,31.90
2019-04-10T11:42:37.078Z,29.76
2019-04-10T11:45:14.418Z,28.90
2019-04-10T11:47:47.540Z,28.44
2019-04-10T11:50:21.936Z,28.24
2019-04-10T11:52:56.751Z,29.24
2019-04-10T11:55:29.756Z,28.83
2019-04-10T11:58:03.029Z,29.88
2019-04-10T12:00:51.012Z,28.70
2019-04-10T12:03:18.392Z,29.96
2019-04-10T12:05:52.546Z,28.30
2019-04-10T12:08:48.565Z,28.08
2019-04-10T12:13:32.409Z,27.78
2019-04-10T12:16:05.416Z,26.81
2019-04-10T12:18:38.408Z,27.88
2019-04-10T12:21:11.174Z,26.51
2019-04-10T12:23:43.571Z,26.01
2019-04-10T12:26:16.020Z,27.41
2019-04-10T12:28:50.017Z,25.62
2019-04-10T12:31:23.819Z,25.47
2019-04-10T12:33:56.978Z,24.75
2019-04-10T12:36:29.358Z,23.85
2019-04-10T12:39:01.977Z,23.85
2019-04-10T12:41:36.274Z,24.23
2019-04-10T12:44:09.592Z,23.99
2019-04-10T12:46:43.505Z,23.80
2019-04-10T12:49:17.126Z,23.24
2019-04-10T12:51:50.087Z,22.94
2019-04-10T12:54:23.766Z,22.46
2019-04-10T12:56:56.711Z,21.54
2019-04-10T12:59:29.456Z,20.70
2019-04-10T13:02:02.843Z,20.70
2019-04-10T13:04:36.866Z,21.10
2019-04-10T13:07:09.950Z,20.83
2019-04-10T13:09:42.223Z,21.96
2019-04-10T13:12:15.311Z,21.11
2019-04-10T13:14:48.585Z,20.84
2019-04-10T13:17:20.804Z,21.19
2019-04-10T13:19:53.452Z,21.20
2019-04-10T13:22:26.495Z,21.86
2019-04-10T13:24:59.625Z,20.57
2019-04-10T13:27:31.901Z,20.56
2019-04-10T13:30:07.020Z,21.04
2019-04-10T13:32:40.294Z,21.01
2019-04-10T13:35:13.686Z,20.83
2019-04-10T13:37:47.840Z,20.71
2019-04-10T13:40:21.545Z,20.47
2019-04-10T13:42:54.208Z,20.46
2019-04-10T13:45:27.105Z,22.35
2019-04-10T13:47:59.794Z,21.62
2019-04-10T13:50:32.758Z,21.96
2019-04-10T13:53:05.849Z,22.55
2019-04-10T13:55:38.428Z,21.48
2019-04-10T13:58:10.902Z,22.01
2019-04-10T14:00:45.108Z,20.89
2019-04-10T14:03:19.302Z,21.21
2019-04-10T14:05:52.909Z,22.10
2019-04-10T14:08:40.476Z,22.25
2019-04-10T14:11:00.593Z,22.12
2019-04-10T14:13:33.034Z,21.93
2019-04-10T14:16:06.822Z,21.17
2019-04-10T14:18:39.301Z,21.23
2019-04-10T14:21:15.618Z,21.32
2019-04-10T14:23:47.235Z,21.36
2019-04-10T14:26:39.166Z,19.72
2019-04-10T14:29:01.716Z,20.15
2019-04-10T14:31:36.279Z,20.49
2019-04-10T14:34:08.888Z,19.22
2019-04-10T14:36:42.198Z,18.56
2019-04-10T14:39:19.582Z,18.99
2019-04-10T14:41:50.513Z,20.56
2019-04-10T14:44:23.314Z,21.34
2019-04-10T14:46:56.078Z,22.38
2019-04-10T14:49:29.297Z,22.87
2019-04-10T14:52:03.076Z,23.04
2019-04-10T14:54:35.856Z,23.57
2019-04-10T14:57:08.532Z,23.48
2019-04-10T14:59:42.256Z,23.15
2019-04-10T15:02:14.916Z,23.34
2019-04-10T15:04:47.388Z,22.96
2019-04-10T15:07:21.864Z,23.04
2019-04-10T15:09:55.921Z,23.86
2019-04-10T15:12:28.498Z,24.23
2019-04-10T15:15:01.720Z,24.05
2019-04-10T15:17:35.199Z,24.03
2019-04-10T15:20:07.769Z,23.56
2019-04-10T15:22:40.345Z,23.05
2019-04-10T15:25:13.040Z,22.89
2019-04-10T15:27:46.001Z,22.81
2019-04-10T15:30:18.793Z,22.78
2019-04-10T15:32:50.973Z,21.82
2019-04-10T15:35:24.366Z,21.78
2019-04-10T15:37:57.772Z,21.92
2019-04-10T15:40:30.553Z,22.21
2019-04-10T15:43:03.118Z,23.54
2019-04-10T15:45:35.810Z,24.31
2019-04-10T15:48:08.387Z,25.05
2019-04-10T15:50:41.446Z,25.26
2019-04-10T15:53:14.335Z,24.86
2019-04-10T15:55:47.601Z,24.12
2019-04-10T15:58:21.542Z,24.24
2019-04-10T16:00:54.425Z,24.27
2019-04-10T16:03:28.133Z,23.92
2019-04-10T16:06:00.856Z,24.00
2019-04-10T16:08:34.431Z,24.67
2019-04-10T16:11:15.587Z,25.55
2019-04-10T16:13:49.703Z,26.58
2019-04-10T16:16:27.368Z,28.48
2019-04-10T16:19:04.371Z,28.60
2019-04-10T16:21:37.980Z,29.58
2019-04-10T16:24:12.335Z,30.17
2019-04-10T16:26:44.872Z,30.02
2019-04-10T16:29:18.124Z,30.24
2019-04-10T16:31:53.086Z,30.16
2019-04-10T16:34:25.470Z,30.32
2019-04-10T16:36:57.948Z,30.01
2019-04-10T16:39:30.516Z,30.15
2019-04-10T16:42:03.128Z,30.21
2019-04-10T16:44:35.880Z,29.54
2019-04-10T16:47:08.360Z,28.83
2019-04-10T16:49:41.234Z,28.84
2019-04-10T16:52:14.585Z,27.95
2019-04-10T16:54:47.310Z,27.93
2019-04-10T16:57:20.683Z,27.45
2019-04-10T16:59:53.486Z,27.54
2019-04-10T17:02:26.347Z,27.35
2019-04-10T17:05:00.499Z,27.23
2019-04-10T17:07:34.873Z,27.59
2019-04-10T17:10:16.516Z,28.47
2019-04-10T17:12:44.730Z,29.37
2019-04-10T17:15:17.975Z,29.84
2019-04-10T17:17:50.683Z,31.28
2019-04-10T17:20:24.850Z,33.57
2019-04-10T17:22:58.386Z,34.80
2019-04-10T17:25:31.903Z,36.37
2019-04-10T17:28:05.214Z,37.92
2019-04-10T17:30:39.977Z,39.13
2019-04-10T17:33:13.864Z,39.96
2019-04-10T17:35:48.238Z,41.38
2019-04-10T17:38:22.593Z,41.70
2019-04-10T17:40:58.902Z,42.85
2019-04-10T17:43:35.113Z,43.70
2019-04-10T17:46:09.417Z,43.87
2019-04-10T17:48:44.566Z,44.93
2019-04-10T17:51:17.840Z,45.95
2019-04-10T17:53:50.460Z,46.33
2019-04-10T17:56:24.582Z,46.98
2019-04-10T17:58:56.696Z,46.89
2019-04-10T18:01:29.330Z,47.21
2019-04-10T18:04:05.488Z,47.45
2019-04-10T18:06:39.481Z,47.21
2019-04-10T18:09:12.068Z,47.79
2019-04-10T18:11:45.684Z,46.77
2019-04-10T18:14:19.581Z,48.73
2019-04-10T18:16:52.188Z,47.18
2019-04-10T18:19:27.403Z,47.89
2019-04-10T18:22:00.518Z,47.04
2019-04-10T18:24:33.370Z,47.35
2019-04-10T18:27:05.810Z,47.06
2019-04-10T18:29:39.300Z,46.95
2019-04-10T18:32:11.803Z,48.15
2019-04-10T18:34:44.727Z,46.98
2019-04-10T18:37:20.632Z,48.06
2019-04-10T18:39:51.187Z,46.86
2019-04-10T18:42:24.366Z,46.69
2019-04-10T18:44:57.506Z,47.25
2019-04-10T18:47:32.365Z,46.19
2019-04-10T18:50:06.412Z,48.15
2019-04-10T18:52:39.282Z,46.05
2019-04-10T18:55:14.323Z,47.92
2019-04-10T18:57:47.304Z,46.47
2019-04-10T19:00:38.593Z,46.18
2019-04-10T19:03:18.887Z,46.69
2019-04-10T19:05:54.089Z,46.43
2019-04-10T19:08:28.014Z,46.81
2019-04-10T19:11:10.560Z,46.16
2019-04-10T19:13:34.810Z,47.31
2019-04-10T19:16:07.606Z,46.43
2019-04-10T19:18:40.193Z,47.66
2019-04-10T19:21:13.272Z,46.37
2019-04-10T19:23:45.951Z,48.37
2019-04-10T19:26:21.051Z,46.38
2019-04-10T19:28:54.612Z,48.86
2019-04-10T19:31:29.787Z,46.38
2019-04-10T19:34:03.282Z,48.85
2019-04-10T19:36:36.216Z,46.40
2019-04-10T19:39:10.218Z,48.70
2019-04-10T19:41:42.328Z,46.83
2019-04-10T19:44:15.053Z,48.10
2019-04-10T19:46:48.358Z,46.88
2019-04-10T19:49:21.795Z,48.38
2019-04-10T19:51:54.636Z,46.94
2019-04-10T19:54:26.837Z,49.13
2019-04-10T19:56:59.384Z,46.80
2019-04-10T19:59:32.065Z,48.69
2019-04-10T20:02:04.586Z,47.03
2019-04-10T20:04:48.504Z,48.09
2019-04-10T20:07:25.052Z,47.12
2019-04-10T20:09:58.946Z,49.45
2019-04-10T20:12:32.837Z,46.93
2019-04-10T20:15:14.018Z,49.47
2019-04-10T20:17:48.339Z,47.11
2019-04-10T20:20:23.569Z,49.29
2019-04-10T20:22:58.301Z,46.95
2019-04-10T20:25:32.414Z,49.34
2019-04-10T20:28:05.325Z,46.67
2019-04-10T20:30:40.450Z,49.59
2019-04-10T20:33:14.485Z,47.01
2019-04-10T20:35:47.274Z,49.69
2019-04-10T20:38:20.859Z,47.06
2019-04-10T20:40:54.036Z,49.90
2019-04-10T20:43:32.672Z,47.12
2019-04-10T20:46:09.845Z,49.50
2019-04-10T20:48:43.040Z,46.80
2019-04-10T20:51:16.582Z,48.84
2019-04-10T20:53:50.544Z,47.23
2019-04-10T20:56:24.258Z,48.76
2019-04-10T20:58:57.233Z,47.06
2019-04-10T21:01:30.919Z,48.76
2019-04-10T21:04:03.731Z,47.30
2019-04-10T21:06:39.133Z,48.39
2019-04-10T21:09:11.636Z,47.69
2019-04-10T21:11:58.852Z,48.20
2019-04-10T21:14:19.194Z,48.41
2019-04-10T21:16:52.132Z,47.70
2019-04-10T21:19:24.914Z,48.95
2019-04-10T21:21:57.699Z,47.82
2019-04-10T21:24:30.169Z,50.09
2019-04-10T21:27:03.574Z,47.89
2019-04-10T21:29:54.821Z,50.25
2019-04-10T21:32:28.194Z,47.81
2019-04-10T21:35:02.172Z,50.07
2019-04-10T21:37:34.762Z,47.82
2019-04-10T21:40:08.177Z,50.11
2019-04-10T21:42:41.279Z,48.01
2019-04-10T21:45:14.139Z,50.38
2019-04-10T21:47:46.716Z,47.99
2019-04-10T21:50:20.022Z,49.85
2019-04-10T21:52:52.787Z,48.15
2019-04-10T21:55:25.266Z,49.14
2019-04-10T21:57:57.945Z,48.35
2019-04-10T22:00:49.210Z,48.66
2019-04-10T22:03:22.551Z,49.09
2019-04-10T22:06:03.610Z,48.44
2019-04-10T22:08:41.412Z,51.01
2019-04-10T22:11:14.821Z,48.02
2019-04-10T22:13:48.606Z,50.82
2019-04-10T22:16:23.924Z,48.22
2019-04-10T22:18:56.849Z,50.45
2019-04-10T22:21:29.738Z,48.16
2019-04-10T22:24:02.315Z,50.11
2019-04-10T22:26:34.797Z,48.33
2019-04-10T22:29:07.689Z,49.85
2019-04-10T22:31:41.564Z,48.35
2019-04-10T22:34:14.364Z,49.38
2019-04-10T22:36:47.189Z,48.28
2019-04-10T22:39:20.912Z,48.79
2019-04-10T22:41:53.321Z,48.96
2019-04-10T22:44:34.721Z,48.74
2019-04-10T22:47:00.969Z,51.42
2019-04-10T22:49:34.885Z,48.63
2019-04-10T22:52:08.847Z,51.27
2019-04-10T22:54:42.295Z,48.64
2019-04-10T22:57:15.027Z,50.41
2019-04-10T22:59:48.783Z,49.09
2019-04-10T23:02:21.617Z,50.27
2019-04-10T23:04:54.295Z,49.29
2019-04-10T23:07:27.945Z,49.53
2019-04-10T23:10:00.982Z,50.97
2019-04-10T23:12:34.586Z,49.32
2019-04-10T23:15:13.375Z,51.62
2019-04-10T23:17:45.827Z,49.00
2019-04-10T23:20:18.715Z,50.75
2019-04-10T23:22:52.607Z,49.38
2019-04-10T23:25:26.552Z,50.12
2019-04-10T23:28:00.978Z,49.90
2019-04-10T23:30:35.126Z,49.51
2019-04-10T23:33:08.118Z,51.42
2019-04-10T23:35:41.308Z,49.33
2019-04-10T23:38:15.205Z,51.69
2019-04-10T23:40:49.311Z,49.03
2019-04-10T23:43:22.743Z,50.88
2019-04-10T23:45:56.410Z,49.09
2019-04-10T23:48:28.890Z,49.99
2019-04-10T23:51:01.458Z,50.47
2019-04-10T23:53:33.938Z,49.10
2019-04-10T23:56:06.513Z,51.74
2019-04-10T23:58:38.640Z,49.21
